createdAt,value
2016-11-06T00:00:12.350Z,19.00
2016-11-06T00:01:12.241Z,19.10
2016-11-06T00:02:13.559Z,19.10
2016-11-06T00:03:13.256Z,19.00
2016-11-06T00:04:12.675Z,19.10
2016-11-06T00:05:11.855Z,19.10
2016-11-06T00:06:12.706Z,19.00
2016-11-06T00:07:12.329Z,19.10
2016-11-06T00:08:11.877Z,19.00
2016-11-06T00:09:12.960Z,19.00
2016-11-06T00:10:12.899Z,19.10
2016-11-06T00:11:13.331Z,19.00
2016-11-06T00:12:12.818Z,19.00
2016-11-06T00:13:13.038Z,19.00
2016-11-06T00:14:11.619Z,19.00
2016-11-06T00:15:12.016Z,19.00
2016-11-06T00:16:12.322Z,19.10
2016-11-06T00:17:12.880Z,19.00
2016-11-06T00:18:13.019Z,19.10
2016-11-06T00:19:11.617Z,19.00
2016-11-06T00:20:11.986Z,19.00
2016-11-06T00:21:12.020Z,19.10
2016-11-06T00:22:11.682Z,19.00
2016-11-06T00:23:13.657Z,19.00
2016-11-06T00:24:12.737Z,19.10
2016-11-06T00:25:13.031Z,19.00
2016-11-06T00:26:13.242Z,19.00
2016-11-06T00:27:12.766Z,19.00
2016-11-06T00:28:14.320Z,19.00
2016-11-06T00:29:11.562Z,19.00
2016-11-06T00:30:11.691Z,19.00
2016-11-06T00:31:12.562Z,19.00
2016-11-06T00:32:10.223Z,19.00
2016-11-06T00:33:11.953Z,19.00
2016-11-06T00:34:11.833Z,19.00
2016-11-06T00:35:13.973Z,19.00
2016-11-06T00:36:11.969Z,19.00
2016-11-06T00:37:13.673Z,19.00
2016-11-06T00:38:13.329Z,19.00
2016-11-06T00:39:09.818Z,19.00
2016-11-06T00:40:11.387Z,19.00
2016-11-06T00:41:12.892Z,19.00
2016-11-06T00:42:12.471Z,19.00
2016-11-06T00:43:12.302Z,19.00
2016-11-06T00:44:12.070Z,19.00
2016-11-06T00:45:12.411Z,19.00
2016-11-06T00:46:13.746Z,19.00
2016-11-06T00:47:12.223Z,19.10
2016-11-06T00:48:12.359Z,19.10
2016-11-06T00:49:13.156Z,19.00
2016-11-06T00:50:11.951Z,19.00
2016-11-06T00:51:13.541Z,19.00
2016-11-06T00:52:14.149Z,19.00
2016-11-06T00:53:12.571Z,19.00
2016-11-06T00:54:12.116Z,19.00
2016-11-06T00:55:14.731Z,19.00
2016-11-06T00:56:12.323Z,19.00
2016-11-06T00:57:10.043Z,19.00
2016-11-06T00:58:12.204Z,19.00
2016-11-06T00:59:11.982Z,19.00
2016-11-06T01:00:12.674Z,19.00
2016-11-06T01:01:14.092Z,19.00
2016-11-06T01:02:11.941Z,19.00
2016-11-06T01:03:12.540Z,19.00
2016-11-06T01:04:09.023Z,19.00
2016-11-06T01:05:12.612Z,19.00
2016-11-06T01:06:12.650Z,19.00
2016-11-06T01:07:12.564Z,19.00
2016-11-06T01:08:11.811Z,19.00
2016-11-06T01:09:14.235Z,19.00
2016-11-06T01:10:13.133Z,19.00
2016-11-06T01:11:13.138Z,19.00
2016-11-06T01:12:12.758Z,19.00
2016-11-06T01:13:12.309Z,19.00
2016-11-06T01:14:12.199Z,19.00
2016-11-06T01:15:11.907Z,19.00
2016-11-06T01:16:14.136Z,19.00
2016-11-06T01:17:12.629Z,19.00
2016-11-06T01:18:12.833Z,19.00
2016-11-06T01:19:13.201Z,19.00
2016-11-06T01:20:11.861Z,19.00
2016-11-06T01:21:12.487Z,19.00
2016-11-06T01:22:14.313Z,19.00
2016-11-06T01:23:12.148Z,19.00
2016-11-06T01:24:11.978Z,19.00
2016-11-06T01:25:09.949Z,19.00
2016-11-06T01:26:10.200Z,19.00
2016-11-06T01:27:14.055Z,19.00
2016-11-06T01:28:11.455Z,18.90
2016-11-06T01:29:12.382Z,18.90
2016-11-06T01:30:12.992Z,18.90
2016-11-06T01:31:11.266Z,19.00
2016-11-06T01:32:14.569Z,19.00
2016-11-06T01:33:12.604Z,18.90
2016-11-06T01:34:11.648Z,19.00
2016-11-06T01:35:12.615Z,19.00
2016-11-06T01:36:12.138Z,19.00
2016-11-06T01:37:11.340Z,19.00
2016-11-06T01:38:10.125Z,19.00
2016-11-06T01:39:11.619Z,19.00
2016-11-06T01:40:13.063Z,19.00
2016-11-06T01:41:12.593Z,19.00
2016-11-06T01:42:12.817Z,19.00
2016-11-06T01:43:12.853Z,19.00
2016-11-06T01:44:10.515Z,19.00
2016-11-06T01:45:10.196Z,19.00
2016-11-06T01:46:12.783Z,19.00
2016-11-06T01:47:09.317Z,19.00
2016-11-06T01:48:12.964Z,19.00
2016-11-06T01:49:18.152Z,19.00
2016-11-06T01:50:12.896Z,19.00
2016-11-06T01:51:12.188Z,19.00
2016-11-06T01:52:12.733Z,19.00
2016-11-06T01:53:12.601Z,19.00
2016-11-06T01:54:11.899Z,19.00
2016-11-06T01:55:14.236Z,19.00
2016-11-06T01:56:11.932Z,19.00
2016-11-06T01:57:12.160Z,19.00
2016-11-06T01:58:13.084Z,19.00
2016-11-06T01:59:10.044Z,19.00
2016-11-06T02:00:13.052Z,19.00
2016-11-06T02:01:12.432Z,19.00
2016-11-06T02:02:12.188Z,19.00
2016-11-06T02:03:18.137Z,19.00
2016-11-06T02:04:11.795Z,19.00
2016-11-06T02:05:12.646Z,19.00
2016-11-06T02:06:12.261Z,19.00
2016-11-06T02:07:10.061Z,19.00
2016-11-06T02:08:12.797Z,19.00
2016-11-06T02:09:12.294Z,19.00
2016-11-06T02:10:12.505Z,19.00
2016-11-06T02:11:12.271Z,19.00
2016-11-06T02:12:12.026Z,19.00
2016-11-06T02:13:13.574Z,19.00
2016-11-06T02:14:11.341Z,19.00
2016-11-06T02:15:12.436Z,19.00
2016-11-06T02:16:12.380Z,19.00
2016-11-06T02:17:12.683Z,19.00
2016-11-06T02:18:11.329Z,19.00
2016-11-06T02:19:11.483Z,19.00
2016-11-06T02:20:12.091Z,19.00
2016-11-06T02:21:12.615Z,19.00
2016-11-06T02:22:09.408Z,19.00
2016-11-06T02:23:12.623Z,19.00
2016-11-06T02:24:13.169Z,19.00
2016-11-06T02:25:13.124Z,19.00
2016-11-06T02:26:11.337Z,19.00
2016-11-06T02:27:13.096Z,19.00
2016-11-06T02:28:11.217Z,19.00
2016-11-06T02:29:11.825Z,19.00
2016-11-06T02:30:12.814Z,19.00
2016-11-06T02:31:12.774Z,19.00
2016-11-06T02:32:13.876Z,19.00
2016-11-06T02:33:14.717Z,19.00
2016-11-06T02:34:13.435Z,19.00
2016-11-06T02:35:13.554Z,19.00
2016-11-06T02:36:12.115Z,19.00
2016-11-06T02:37:13.686Z,19.00
2016-11-06T02:38:12.673Z,19.00
2016-11-06T02:39:12.561Z,19.00
2016-11-06T02:40:13.230Z,19.00
2016-11-06T02:41:12.346Z,19.00
2016-11-06T02:42:12.976Z,19.00
2016-11-06T02:43:11.790Z,19.00
2016-11-06T02:44:14.676Z,19.00
2016-11-06T02:45:12.643Z,19.00
2016-11-06T02:46:11.854Z,19.00
2016-11-06T02:47:13.014Z,19.00
2016-11-06T02:48:11.397Z,19.00
2016-11-06T02:49:12.479Z,19.00
2016-11-06T02:50:10.288Z,19.00
2016-11-06T02:51:12.354Z,19.00
2016-11-06T02:52:11.488Z,19.00
2016-11-06T02:53:13.357Z,18.90
2016-11-06T02:54:11.307Z,19.00
2016-11-06T02:55:14.006Z,19.00
2016-11-06T02:56:12.095Z,19.00
2016-11-06T02:57:12.069Z,18.90
2016-11-06T02:58:13.291Z,19.00
2016-11-06T02:59:13.008Z,19.00
2016-11-06T03:00:11.103Z,18.90
2016-11-06T03:01:10.368Z,19.00
2016-11-06T03:02:11.041Z,18.90
2016-11-06T03:03:11.041Z,18.90
2016-11-06T03:04:11.480Z,19.00
2016-11-06T03:05:11.625Z,19.00
2016-11-06T03:06:11.750Z,18.90
2016-11-06T03:07:12.723Z,19.00
2016-11-06T03:08:12.697Z,18.90
2016-11-06T03:09:16.859Z,18.90
2016-11-06T03:10:11.706Z,18.90
2016-11-06T03:11:12.302Z,18.90
2016-11-06T03:12:13.853Z,18.90
2016-11-06T03:13:13.093Z,19.00
2016-11-06T03:14:12.894Z,18.90
2016-11-06T03:15:12.063Z,18.90
2016-11-06T03:16:09.661Z,19.00
2016-11-06T03:17:12.064Z,18.90
2016-11-06T03:18:12.751Z,18.90
2016-11-06T03:19:12.904Z,18.90
2016-11-06T03:20:12.090Z,18.90
2016-11-06T03:21:12.168Z,18.90
2016-11-06T03:22:12.682Z,18.90
2016-11-06T03:23:12.865Z,18.90
2016-11-06T03:24:12.904Z,18.90
2016-11-06T03:25:10.215Z,19.00
2016-11-06T03:26:13.492Z,18.90
2016-11-06T03:27:12.847Z,18.90
2016-11-06T03:28:12.740Z,18.90
2016-11-06T03:29:12.413Z,18.90
2016-11-06T03:30:13.159Z,18.90
2016-11-06T03:31:11.896Z,18.90
2016-11-06T03:32:12.572Z,19.00
2016-11-06T03:33:12.276Z,18.90
2016-11-06T03:34:09.874Z,18.90
2016-11-06T03:35:11.607Z,18.90
2016-11-06T03:36:11.558Z,18.90
2016-11-06T03:37:13.260Z,19.00
2016-11-06T03:38:09.019Z,19.00
2016-11-06T03:39:11.191Z,18.90
2016-11-06T03:40:11.760Z,19.00
2016-11-06T03:41:13.556Z,18.90
2016-11-06T03:42:11.697Z,18.90
2016-11-06T03:43:11.916Z,18.90
2016-11-06T03:44:12.106Z,18.90
2016-11-06T03:45:12.279Z,18.90
2016-11-06T03:46:12.445Z,18.90
2016-11-06T03:47:12.136Z,18.90
2016-11-06T03:48:12.026Z,18.90
2016-11-06T03:49:13.840Z,18.90
2016-11-06T03:50:14.973Z,18.90
2016-11-06T03:51:12.083Z,18.90
2016-11-06T03:52:11.711Z,18.90
2016-11-06T03:53:11.417Z,18.90
2016-11-06T03:54:11.770Z,18.90
2016-11-06T03:55:13.313Z,18.90
2016-11-06T03:56:11.418Z,18.90
2016-11-06T03:57:11.980Z,18.90
2016-11-06T03:58:11.129Z,18.90
2016-11-06T03:59:11.134Z,18.90
2016-11-06T04:00:11.948Z,18.90
2016-11-06T04:01:09.679Z,18.90
2016-11-06T04:02:12.027Z,18.90
2016-11-06T04:03:11.835Z,18.90
2016-11-06T04:04:12.180Z,19.00
2016-11-06T04:05:11.361Z,18.90
2016-11-06T04:06:12.172Z,18.90
2016-11-06T04:07:11.133Z,18.90
2016-11-06T04:08:11.245Z,18.90
2016-11-06T04:09:12.435Z,18.90
2016-11-06T04:10:12.263Z,18.90
2016-11-06T04:11:11.720Z,18.90
2016-11-06T04:12:12.707Z,18.90
2016-11-06T04:13:12.248Z,18.90
2016-11-06T04:14:09.245Z,18.90
2016-11-06T04:15:11.173Z,18.90
2016-11-06T04:16:11.275Z,18.90
2016-11-06T04:17:12.207Z,18.90
2016-11-06T04:18:11.986Z,18.90
2016-11-06T04:19:14.086Z,18.90
2016-11-06T04:20:11.542Z,18.90
2016-11-06T04:21:11.596Z,18.90
2016-11-06T04:22:11.583Z,18.90
2016-11-06T04:23:13.249Z,18.90
2016-11-06T04:24:12.473Z,18.90
2016-11-06T04:25:12.455Z,18.90
2016-11-06T04:26:11.542Z,18.90
2016-11-06T04:27:11.933Z,18.90
2016-11-06T04:28:11.706Z,18.90
2016-11-06T04:29:12.211Z,18.90
2016-11-06T04:30:11.549Z,18.90
2016-11-06T04:31:11.434Z,18.90
2016-11-06T04:32:12.031Z,18.90
2016-11-06T04:33:11.052Z,18.90
2016-11-06T04:34:11.951Z,18.90
2016-11-06T04:35:11.652Z,18.90
2016-11-06T04:36:12.601Z,18.90
2016-11-06T04:37:12.647Z,18.90
2016-11-06T04:38:14.854Z,18.90
2016-11-06T04:39:12.603Z,18.90
2016-11-06T04:40:12.160Z,18.90
2016-11-06T04:41:11.543Z,18.90
2016-11-06T04:42:14.291Z,18.90
2016-11-06T04:43:12.569Z,18.90
2016-11-06T04:44:12.102Z,18.90
2016-11-06T04:45:11.894Z,18.90
2016-11-06T04:46:12.456Z,18.90
2016-11-06T04:47:13.015Z,18.90
2016-11-06T04:48:13.298Z,18.90
2016-11-06T04:49:12.171Z,18.90
2016-11-06T04:50:12.920Z,18.90
2016-11-06T04:51:13.403Z,18.90
2016-11-06T04:52:11.354Z,18.90
2016-11-06T04:53:11.836Z,18.90
2016-11-06T04:54:12.209Z,18.90
2016-11-06T04:55:13.163Z,18.90
2016-11-06T04:56:12.689Z,18.90
2016-11-06T04:57:12.153Z,18.90
2016-11-06T04:58:11.770Z,18.90
2016-11-06T04:59:11.831Z,18.90
2016-11-06T05:00:12.509Z,18.90
2016-11-06T05:01:11.429Z,18.90
2016-11-06T05:02:13.189Z,18.90
2016-11-06T05:03:12.019Z,18.90
2016-11-06T05:04:11.496Z,18.90
2016-11-06T05:05:11.721Z,18.90
2016-11-06T05:06:11.758Z,18.90
2016-11-06T05:07:12.453Z,18.90
2016-11-06T05:08:12.110Z,18.90
2016-11-06T05:09:11.173Z,18.90
2016-11-06T05:10:12.392Z,18.90
2016-11-06T05:11:11.431Z,18.90
2016-11-06T05:12:14.378Z,18.90
2016-11-06T05:13:12.993Z,18.90
2016-11-06T05:14:11.806Z,18.90
2016-11-06T05:15:12.321Z,18.90
2016-11-06T05:16:11.352Z,18.90
2016-11-06T05:17:12.041Z,18.90
2016-11-06T05:18:11.711Z,18.90
2016-11-06T05:19:12.345Z,18.90
2016-11-06T05:20:12.993Z,18.90
2016-11-06T05:21:08.979Z,18.90
2016-11-06T05:22:11.239Z,18.90
2016-11-06T05:23:13.892Z,18.90
2016-11-06T05:24:12.627Z,18.90
2016-11-06T05:25:11.704Z,18.90
2016-11-06T05:26:12.555Z,18.90
2016-11-06T05:27:15.268Z,18.90
2016-11-06T05:28:11.552Z,18.90
2016-11-06T05:29:12.171Z,18.90
2016-11-06T05:30:11.757Z,18.90
2016-11-06T05:31:11.694Z,18.90
2016-11-06T05:32:11.800Z,18.90
2016-11-06T05:33:12.277Z,18.90
2016-11-06T05:34:11.354Z,18.90
2016-11-06T05:35:11.569Z,18.90
2016-11-06T05:36:08.942Z,18.90
2016-11-06T05:37:13.065Z,18.90
2016-11-06T05:38:11.175Z,18.90
2016-11-06T05:39:11.970Z,18.90
2016-11-06T05:40:12.319Z,18.90
2016-11-06T05:41:12.367Z,18.90
2016-11-06T05:42:12.360Z,18.90
2016-11-06T05:43:11.424Z,18.90
2016-11-06T05:44:12.729Z,18.90
2016-11-06T05:45:12.297Z,18.90
2016-11-06T05:46:11.621Z,18.90
2016-11-06T05:47:12.489Z,18.90
2016-11-06T05:48:12.941Z,18.90
2016-11-06T05:49:12.232Z,18.90
2016-11-06T05:50:11.857Z,18.90
2016-11-06T05:51:12.350Z,18.90
2016-11-06T05:52:11.836Z,18.90
2016-11-06T05:53:10.127Z,18.90
2016-11-06T05:54:12.345Z,18.90
2016-11-06T05:55:11.512Z,18.90
2016-11-06T05:56:12.112Z,18.90
2016-11-06T05:57:12.967Z,18.90
2016-11-06T05:58:12.606Z,18.90
2016-11-06T05:59:12.260Z,18.90
2016-11-06T06:00:12.023Z,18.90
2016-11-06T06:01:09.664Z,19.00
2016-11-06T06:02:11.762Z,18.90
2016-11-06T06:03:12.315Z,18.90
2016-11-06T06:04:13.214Z,18.90
2016-11-06T06:05:11.251Z,18.90
2016-11-06T06:06:11.241Z,18.90
2016-11-06T06:07:12.077Z,18.90
2016-11-06T06:08:11.907Z,18.90
2016-11-06T06:09:11.927Z,18.90
2016-11-06T06:10:12.469Z,18.90
2016-11-06T06:11:11.934Z,18.90
2016-11-06T06:12:13.414Z,18.90
2016-11-06T06:13:11.854Z,18.90
2016-11-06T06:14:13.618Z,18.90
2016-11-06T06:15:11.669Z,18.90
2016-11-06T06:16:12.285Z,18.90
2016-11-06T06:17:12.001Z,18.90
2016-11-06T06:18:11.717Z,18.90
2016-11-06T06:19:11.741Z,18.90
2016-11-06T06:20:12.694Z,18.90
2016-11-06T06:21:13.264Z,18.90
2016-11-06T06:22:11.347Z,18.90
2016-11-06T06:23:11.932Z,18.90
2016-11-06T06:24:11.902Z,18.90
2016-11-06T06:25:13.639Z,18.90
2016-11-06T06:26:09.386Z,18.90
2016-11-06T06:27:11.761Z,18.90
2016-11-06T06:28:11.746Z,18.90
2016-11-06T06:29:11.789Z,18.90
2016-11-06T06:30:12.400Z,18.90
2016-11-06T06:31:12.835Z,18.90
2016-11-06T06:32:10.468Z,18.90
2016-11-06T06:33:13.361Z,18.90
2016-11-06T06:34:12.016Z,18.90
2016-11-06T06:35:11.730Z,18.90
2016-11-06T06:36:12.727Z,18.90
2016-11-06T06:37:12.390Z,18.90
2016-11-06T06:38:09.848Z,18.90
2016-11-06T06:39:11.930Z,18.90
2016-11-06T06:40:12.352Z,18.90
2016-11-06T06:41:11.936Z,18.90
2016-11-06T06:42:12.679Z,18.90
2016-11-06T06:43:13.233Z,18.90
2016-11-06T06:44:11.788Z,18.90
2016-11-06T06:45:11.537Z,18.90
2016-11-06T06:46:12.156Z,18.90
2016-11-06T06:47:13.054Z,18.90
2016-11-06T06:48:11.596Z,18.90
2016-11-06T06:49:12.934Z,18.90
2016-11-06T06:50:11.568Z,18.90
2016-11-06T06:51:11.649Z,18.90
2016-11-06T06:52:12.475Z,18.90
2016-11-06T06:53:12.199Z,18.90
2016-11-06T06:54:11.346Z,18.90
2016-11-06T06:55:13.988Z,18.90
2016-11-06T06:56:12.055Z,18.90
2016-11-06T06:57:11.920Z,18.90
2016-11-06T06:58:12.850Z,18.90
2016-11-06T06:59:11.716Z,18.90
2016-11-06T07:00:11.706Z,18.90
2016-11-06T07:01:12.494Z,19.00
2016-11-06T07:02:10.197Z,19.00
2016-11-06T07:03:12.055Z,19.00
2016-11-06T07:04:09.087Z,19.00
2016-11-06T07:05:12.306Z,19.00
2016-11-06T07:06:11.905Z,19.00
2016-11-06T07:07:10.246Z,19.00
2016-11-06T07:08:13.561Z,19.00
2016-11-06T07:09:11.903Z,19.00
2016-11-06T07:10:12.565Z,19.00
2016-11-06T07:11:11.958Z,19.00
2016-11-06T07:12:12.832Z,19.00
2016-11-06T07:13:11.873Z,19.00
2016-11-06T07:14:10.259Z,19.00
2016-11-06T07:15:12.700Z,19.00
2016-11-06T07:16:12.468Z,19.00
2016-11-06T07:17:09.654Z,19.00
2016-11-06T07:18:11.675Z,19.00
2016-11-06T07:19:12.335Z,19.00
2016-11-06T07:20:09.822Z,19.00
2016-11-06T07:21:11.251Z,19.00
2016-11-06T07:22:12.711Z,19.00
2016-11-06T07:23:13.208Z,19.00
2016-11-06T07:24:11.281Z,19.00
2016-11-06T07:25:11.939Z,19.00
2016-11-06T07:26:12.676Z,19.00
2016-11-06T07:27:13.230Z,19.00
2016-11-06T07:28:11.958Z,19.10
2016-11-06T07:29:11.492Z,19.10
2016-11-06T07:30:09.753Z,19.10
2016-11-06T07:31:11.963Z,19.00
2016-11-06T07:32:12.338Z,19.00
2016-11-06T07:33:12.303Z,19.00
2016-11-06T07:34:11.599Z,18.80
2016-11-06T07:35:10.254Z,18.00
2016-11-06T07:36:12.156Z,17.40
2016-11-06T07:37:11.117Z,16.90
2016-11-06T07:38:12.857Z,16.50
2016-11-06T07:39:11.864Z,16.10
2016-11-06T07:40:12.324Z,16.20
2016-11-06T07:41:11.326Z,16.40
2016-11-06T07:42:10.086Z,16.60
2016-11-06T07:43:13.094Z,16.90
2016-11-06T07:44:11.561Z,17.10
2016-11-06T07:45:10.178Z,17.30
2016-11-06T07:46:12.005Z,17.50
2016-11-06T07:47:11.778Z,17.60
2016-11-06T07:48:11.816Z,17.80
2016-11-06T07:49:12.401Z,17.90
2016-11-06T07:50:11.942Z,17.90
2016-11-06T07:51:11.970Z,18.00
2016-11-06T07:52:12.418Z,18.10
2016-11-06T07:53:12.207Z,18.10
2016-11-06T07:54:11.918Z,18.20
2016-11-06T07:55:12.566Z,18.20
2016-11-06T07:56:10.318Z,18.30
2016-11-06T07:57:12.653Z,18.30
2016-11-06T07:58:11.617Z,18.30
2016-11-06T07:59:12.292Z,18.30
2016-11-06T08:00:12.966Z,18.30
2016-11-06T08:01:12.376Z,18.40
2016-11-06T08:02:10.064Z,18.40
2016-11-06T08:03:11.443Z,18.40
2016-11-06T08:04:11.272Z,18.40
2016-11-06T08:05:13.059Z,18.40
2016-11-06T08:06:13.489Z,18.50
2016-11-06T08:07:13.252Z,18.50
2016-11-06T08:08:09.801Z,18.50
2016-11-06T08:09:09.196Z,18.50
2016-11-06T08:10:13.174Z,18.50
2016-11-06T08:11:12.038Z,18.50
2016-11-06T08:12:11.050Z,18.50
2016-11-06T08:13:11.707Z,18.50
2016-11-06T08:14:11.760Z,18.50
2016-11-06T08:15:12.223Z,18.50
2016-11-06T08:16:12.790Z,18.60
2016-11-06T08:17:12.972Z,18.60
2016-11-06T08:18:12.044Z,18.50
2016-11-06T08:19:13.024Z,18.60
2016-11-06T08:20:11.131Z,18.60
2016-11-06T08:21:11.825Z,18.60
2016-11-06T08:22:11.919Z,18.60
2016-11-06T08:23:11.935Z,18.60
2016-11-06T08:24:11.944Z,18.60
2016-11-06T08:25:11.666Z,18.60
2016-11-06T08:26:11.735Z,18.60
2016-11-06T08:27:12.380Z,18.60
2016-11-06T08:28:11.517Z,18.60
2016-11-06T08:29:11.267Z,18.60
2016-11-06T08:30:11.450Z,18.60
2016-11-06T08:31:11.423Z,18.60
2016-11-06T08:32:12.413Z,18.60
2016-11-06T08:33:12.154Z,18.60
2016-11-06T08:34:11.852Z,18.60
2016-11-06T08:35:12.600Z,18.60
2016-11-06T08:36:11.598Z,18.60
2016-11-06T08:37:11.532Z,18.60
2016-11-06T08:38:13.193Z,18.60
2016-11-06T08:39:12.061Z,18.60
2016-11-06T08:40:11.173Z,18.60
2016-11-06T08:41:11.831Z,18.60
2016-11-06T08:42:12.392Z,18.60
2016-11-06T08:43:11.943Z,18.60
2016-11-06T08:44:15.400Z,18.60
2016-11-06T08:45:13.232Z,18.60
2016-11-06T08:46:11.689Z,18.70
2016-11-06T08:47:11.988Z,18.70
2016-11-06T08:48:12.521Z,18.60
2016-11-06T08:49:12.175Z,18.70
2016-11-06T08:50:11.927Z,18.70
2016-11-06T08:51:11.494Z,18.70
2016-11-06T08:52:12.176Z,18.70
2016-11-06T08:53:11.315Z,18.70
2016-11-06T08:54:13.955Z,18.70
2016-11-06T08:55:12.053Z,18.70
2016-11-06T08:56:11.156Z,18.70
2016-11-06T08:57:11.110Z,18.70
2016-11-06T08:58:11.926Z,18.70
2016-11-06T08:59:12.565Z,18.70
2016-11-06T09:00:11.935Z,18.70
2016-11-06T09:01:13.517Z,18.70
2016-11-06T09:02:12.284Z,18.70
2016-11-06T09:03:11.826Z,18.70
2016-11-06T09:04:15.529Z,18.70
2016-11-06T09:05:11.597Z,18.70
2016-11-06T09:06:11.696Z,18.70
2016-11-06T09:07:11.687Z,18.70
2016-11-06T09:08:12.318Z,18.70
2016-11-06T09:09:13.060Z,18.70
2016-11-06T09:10:11.267Z,18.70
2016-11-06T09:11:11.431Z,18.70
2016-11-06T09:12:12.100Z,18.70
2016-11-06T09:13:11.775Z,18.70
2016-11-06T09:14:12.318Z,18.70
2016-11-06T09:15:11.381Z,18.70
2016-11-06T09:16:11.859Z,18.70
2016-11-06T09:17:12.009Z,18.70
2016-11-06T09:18:11.858Z,18.70
2016-11-06T09:19:11.883Z,18.70
2016-11-06T09:20:12.496Z,18.70
2016-11-06T09:21:11.812Z,18.70
2016-11-06T09:22:11.708Z,18.70
2016-11-06T09:23:12.300Z,18.70
2016-11-06T09:24:11.804Z,18.70
2016-11-06T09:25:12.249Z,18.70
2016-11-06T09:26:11.723Z,18.70
2016-11-06T09:27:11.771Z,18.70
2016-11-06T09:28:12.226Z,18.70
2016-11-06T09:29:13.497Z,18.70
2016-11-06T09:30:11.434Z,18.70
2016-11-06T09:31:11.746Z,18.70
2016-11-06T09:32:12.350Z,18.70
2016-11-06T09:33:12.093Z,18.70
2016-11-06T09:34:11.494Z,18.70
2016-11-06T09:35:08.936Z,18.70
2016-11-06T09:36:12.277Z,18.70
2016-11-06T09:37:13.520Z,18.70
2016-11-06T09:38:11.783Z,18.70
2016-11-06T09:39:14.193Z,18.70
2016-11-06T09:40:11.108Z,18.70
2016-11-06T09:41:11.599Z,18.70
2016-11-06T09:42:12.107Z,18.70
2016-11-06T09:43:11.518Z,18.70
2016-11-06T09:44:11.565Z,18.70
2016-11-06T09:45:12.217Z,18.70
2016-11-06T09:46:12.849Z,18.70
2016-11-06T09:47:11.719Z,18.70
2016-11-06T09:48:12.289Z,18.70
2016-11-06T09:49:12.359Z,18.70
2016-11-06T09:50:12.392Z,18.70
2016-11-06T09:51:11.350Z,18.70
2016-11-06T09:52:12.027Z,18.70
2016-11-06T09:53:11.954Z,18.70
2016-11-06T09:54:11.811Z,18.70
2016-11-06T09:55:09.577Z,18.70
2016-11-06T09:56:13.111Z,18.70
2016-11-06T09:57:11.069Z,18.70
2016-11-06T09:58:11.563Z,18.70
2016-11-06T09:59:12.336Z,18.80
2016-11-06T10:00:11.852Z,18.80
2016-11-06T10:01:11.979Z,18.80
2016-11-06T10:02:11.893Z,18.80
2016-11-06T10:03:12.720Z,18.80
2016-11-06T10:04:12.235Z,18.70
2016-11-06T10:05:11.874Z,18.70
2016-11-06T10:06:11.903Z,18.70
2016-11-06T10:07:12.625Z,18.70
2016-11-06T10:08:13.210Z,18.70
2016-11-06T10:09:11.709Z,18.80
2016-11-06T10:10:11.488Z,18.70
2016-11-06T10:11:11.520Z,18.70
2016-11-06T10:12:11.650Z,18.70
2016-11-06T10:13:12.232Z,18.70
2016-11-06T10:14:11.772Z,18.80
2016-11-06T10:15:12.069Z,18.70
2016-11-06T10:16:11.075Z,18.70
2016-11-06T10:17:11.307Z,18.70
2016-11-06T10:18:11.958Z,18.80
2016-11-06T10:19:12.180Z,18.70
2016-11-06T10:20:11.896Z,18.70
2016-11-06T10:21:12.021Z,18.70
2016-11-06T10:22:11.171Z,18.70
2016-11-06T10:23:13.060Z,18.70
2016-11-06T10:24:10.979Z,18.70
2016-11-06T10:25:11.863Z,18.70
2016-11-06T10:26:12.417Z,18.70
2016-11-06T10:27:11.582Z,18.70
2016-11-06T10:28:11.768Z,18.70
2016-11-06T10:29:12.466Z,18.80
2016-11-06T10:30:13.134Z,18.70
2016-11-06T10:31:11.798Z,18.70
2016-11-06T10:32:11.990Z,18.70
2016-11-06T10:33:12.048Z,18.70
2016-11-06T10:34:11.145Z,18.70
2016-11-06T10:35:11.963Z,18.70
2016-11-06T10:36:11.981Z,18.80
2016-11-06T10:37:11.062Z,18.70
2016-11-06T10:38:08.910Z,18.80
2016-11-06T10:39:11.962Z,18.70
2016-11-06T10:40:12.074Z,18.70
2016-11-06T10:41:11.228Z,18.70
2016-11-06T10:42:11.944Z,18.70
2016-11-06T10:43:12.359Z,18.80
2016-11-06T10:44:11.815Z,18.80
2016-11-06T10:45:12.527Z,18.70
2016-11-06T10:46:11.674Z,18.70
2016-11-06T10:47:11.597Z,18.80
2016-11-06T10:48:11.593Z,18.70
2016-11-06T10:49:11.454Z,18.70
2016-11-06T10:50:12.427Z,18.80
2016-11-06T10:51:11.370Z,18.70
2016-11-06T10:52:12.369Z,18.70
2016-11-06T10:53:11.209Z,18.70
2016-11-06T10:54:12.013Z,18.70
2016-11-06T10:55:11.999Z,18.70
2016-11-06T10:56:09.463Z,18.80
2016-11-06T10:57:11.730Z,18.70
2016-11-06T10:58:12.272Z,18.70
2016-11-06T10:59:11.783Z,18.80
2016-11-06T11:00:12.236Z,18.80
2016-11-06T11:01:11.868Z,18.70
2016-11-06T11:02:13.366Z,18.70
2016-11-06T11:03:11.376Z,18.70
2016-11-06T11:04:11.527Z,18.70
2016-11-06T11:05:13.376Z,18.70
2016-11-06T11:06:13.249Z,18.70
2016-11-06T11:07:11.877Z,18.80
2016-11-06T11:08:12.405Z,18.70
2016-11-06T11:09:11.782Z,18.80
2016-11-06T11:10:12.525Z,18.70
2016-11-06T11:11:11.590Z,18.70
2016-11-06T11:12:11.582Z,18.70
2016-11-06T11:13:11.608Z,18.70
2016-11-06T11:14:11.395Z,18.70
2016-11-06T11:15:10.244Z,18.80
2016-11-06T11:16:11.826Z,18.80
2016-11-06T11:17:13.645Z,18.80
2016-11-06T11:18:12.007Z,18.70
2016-11-06T11:19:13.033Z,18.80
2016-11-06T11:20:11.091Z,18.80
2016-11-06T11:21:11.992Z,18.80
2016-11-06T11:22:11.798Z,18.80
2016-11-06T11:23:13.428Z,18.80
2016-11-06T11:24:10.085Z,18.80
2016-11-06T11:25:11.570Z,18.80
2016-11-06T11:26:11.662Z,18.70
2016-11-06T11:27:11.706Z,18.70
2016-11-06T11:28:12.149Z,18.80
2016-11-06T11:29:11.298Z,18.70
2016-11-06T11:30:12.041Z,18.70
2016-11-06T11:31:11.598Z,18.80
2016-11-06T11:32:10.408Z,18.80
2016-11-06T11:33:11.567Z,18.70
2016-11-06T11:34:11.730Z,18.70
2016-11-06T11:35:11.707Z,18.70
2016-11-06T11:36:12.166Z,18.70
2016-11-06T11:37:12.082Z,18.70
2016-11-06T11:38:11.066Z,18.70
2016-11-06T11:39:11.418Z,18.70
2016-11-06T11:40:12.137Z,18.70
2016-11-06T11:41:11.819Z,18.70
2016-11-06T11:42:12.543Z,18.70
2016-11-06T11:43:12.365Z,18.70
2016-11-06T11:44:11.477Z,18.70
2016-11-06T11:45:11.540Z,18.70
2016-11-06T11:46:11.522Z,18.70
2016-11-06T11:47:11.528Z,18.70
2016-11-06T11:48:12.812Z,18.80
2016-11-06T11:49:12.322Z,18.80
2016-11-06T11:50:11.504Z,18.80
2016-11-06T11:51:11.976Z,18.80
2016-11-06T11:52:11.802Z,18.80
2016-11-06T11:53:11.874Z,18.70
2016-11-06T11:54:09.195Z,18.80
2016-11-06T11:55:11.161Z,18.70
2016-11-06T11:56:11.319Z,18.80
2016-11-06T11:57:12.624Z,18.80
2016-11-06T11:58:11.613Z,18.80
2016-11-06T11:59:12.910Z,18.80
2016-11-06T12:00:14.321Z,18.80
2016-11-06T12:01:12.444Z,18.80
2016-11-06T12:02:13.190Z,18.70
2016-11-06T12:03:11.251Z,18.80
2016-11-06T12:04:12.001Z,18.80
2016-11-06T12:05:09.983Z,18.80
2016-11-06T12:06:11.264Z,18.80
2016-11-06T12:07:12.218Z,18.80
2016-11-06T12:08:11.232Z,18.80
2016-11-06T12:09:11.086Z,18.80
2016-11-06T12:10:11.654Z,18.80
2016-11-06T12:11:13.165Z,18.80
2016-11-06T12:12:11.396Z,18.80
2016-11-06T12:13:12.117Z,18.90
2016-11-06T12:14:12.012Z,18.90
2016-11-06T12:15:12.111Z,18.80
2016-11-06T12:16:11.771Z,18.80
2016-11-06T12:17:12.298Z,18.90
2016-11-06T12:18:12.158Z,18.90
2016-11-06T12:19:12.331Z,18.80
2016-11-06T12:20:13.358Z,18.90
2016-11-06T12:21:12.406Z,18.90
2016-11-06T12:22:12.775Z,18.90
2016-11-06T12:23:11.421Z,18.90
2016-11-06T12:24:17.932Z,18.90
2016-11-06T12:25:11.235Z,18.90
2016-11-06T12:26:11.880Z,18.90
2016-11-06T12:27:12.553Z,18.90
2016-11-06T12:28:11.583Z,18.90
2016-11-06T12:29:11.986Z,18.90
2016-11-06T12:30:17.441Z,18.90
2016-11-06T12:31:12.845Z,18.90
2016-11-06T12:32:11.740Z,18.90
2016-11-06T12:33:11.651Z,18.90
2016-11-06T12:34:13.171Z,19.00
2016-11-06T12:35:12.315Z,18.90
2016-11-06T12:36:10.093Z,18.90
2016-11-06T12:37:13.973Z,19.00
2016-11-06T12:38:11.899Z,18.90
2016-11-06T12:39:12.394Z,18.90
2016-11-06T12:40:12.786Z,18.90
2016-11-06T12:41:10.050Z,19.00
2016-11-06T12:42:12.281Z,18.90
2016-11-06T12:43:12.174Z,19.00
2016-11-06T12:44:12.047Z,19.00
2016-11-06T12:45:11.295Z,19.00
2016-11-06T12:46:11.305Z,19.00
2016-11-06T12:47:11.845Z,19.00
2016-11-06T12:48:09.665Z,19.10
2016-11-06T12:49:12.753Z,19.10
2016-11-06T12:50:11.782Z,19.10
2016-11-06T12:51:11.833Z,19.10
2016-11-06T12:52:12.604Z,19.10